sensor_id;sensor_type;location;lat;lon;timestamp;pressure;altitude;pressure_sealevel;temperature;humidity
42247;BME280;27913;42.722;23.268;2023-01-30T00:00:18;95042.38;;;-3.47;94.51
42247;BME280;27913;42.722;23.268;2023-01-30T00:02:44;95303.72;;;-1.93;95.05
42247;BME280;27913;42.722;23.268;2023-01-30T00:05:09;95304.53;;;-1.93;95.86
42247;BME280;27913;42.722;23.268;2023-01-30T00:07:35;95292.34;;;-1.91;95.60
42247;BME280;27913;42.722;23.268;2023-01-30T00:10:00;95290.81;;;-1.93;96.12
42247;BME280;27913;42.722;23.268;2023-01-30T00:12:25;95285.94;;;-1.98;96.79
42247;BME280;27913;42.722;23.268;2023-01-30T00:14:51;95288.53;;;-1.98;96.34
42247;BME280;27913;42.722;23.268;2023-01-30T00:17:17;95303.59;;;-2.05;96.37
42247;BME280;27913;42.722;23.268;2023-01-30T00:19:42;95149.09;;;-2.86;96.48
42247;BME280;27913;42.722;23.268;2023-01-30T00:22:07;95123.94;;;-3.22;97.28
42247;BME280;27913;42.722;23.268;2023-01-30T00:24:33;95190.53;;;-2.63;96.60
42247;BME280;27913;42.722;23.268;2023-01-30T00:26:58;95302.16;;;-2.09;97.45
42247;BME280;27913;42.722;23.268;2023-01-30T00:29:24;95309.69;;;-2.06;96.59
42247;BME280;27913;42.722;23.268;2023-01-30T00:31:49;95300.47;;;-2.10;96.42
42247;BME280;27913;42.722;23.268;2023-01-30T00:34:15;95089.72;;;-3.37;96.07
42247;BME280;27913;42.722;23.268;2023-01-30T00:36:41;95252.31;;;-2.36;96.06
42247;BME280;27913;42.722;23.268;2023-01-30T00:39:06;95289.44;;;-2.25;96.08
42247;BME280;27913;42.722;23.268;2023-01-30T00:41:32;94957.75;;;-4.19;96.96
42247;BME280;27913;42.722;23.268;2023-01-30T00:44:15;95025.34;;;-3.76;97.59
42247;BME280;27913;42.722;23.268;2023-01-30T00:47:00;94998.00;;;-3.92;98.02
42247;BME280;27913;42.722;23.268;2023-01-30T00:49:33;95266.75;;;-2.33;98.27
42247;BME280;27913;42.722;23.268;2023-01-30T00:51:59;95269.84;;;-2.28;98.01
42247;BME280;27913;42.722;23.268;2023-01-30T00:54:25;95295.09;;;-2.33;98.95
42247;BME280;27913;42.722;23.268;2023-01-30T00:56:51;95159.28;;;-2.98;98.22
42247;BME280;27913;42.722;23.268;2023-01-30T00:59:16;94968.56;;;-4.14;98.00
42247;BME280;27913;42.722;23.268;2023-01-30T01:04:18;95005.16;;;-4.10;98.04
42247;BME280;27913;42.722;23.268;2023-01-30T01:06:43;94979.13;;;-4.18;98.62
42247;BME280;27913;42.722;23.268;2023-01-30T01:09:09;95109.72;;;-3.28;98.48
42247;BME280;27913;42.722;23.268;2023-01-30T01:11:35;95058.69;;;-3.61;98.46
42247;BME280;27913;42.722;23.268;2023-01-30T01:14:02;95142.59;;;-3.05;98.21
42247;BME280;27913;42.722;23.268;2023-01-30T01:16:29;94956.59;;;-4.28;98.45
42247;BME280;27913;42.722;23.268;2023-01-30T01:18:54;95156.25;;;-3.18;98.64
42247;BME280;27913;42.722;23.268;2023-01-30T01:21:20;94981.31;;;-4.12;99.24
42247;BME280;27913;42.722;23.268;2023-01-30T01:23:55;95261.38;;;-2.43;99.70
42247;BME280;27913;42.722;23.268;2023-01-30T01:26:21;95144.75;;;-3.12;99.52
42247;BME280;27913;42.722;23.268;2023-01-30T01:28:47;95197.03;;;-2.71;99.73
42247;BME280;27913;42.722;23.268;2023-01-30T01:31:14;94979.50;;;-3.97;99.02
42247;BME280;27913;42.722;23.268;2023-01-30T01:33:41;95134.25;;;-3.09;99.29
42247;BME280;27913;42.722;23.268;2023-01-30T01:36:06;95245.13;;;-2.31;99.06
42247;BME280;27913;42.722;23.268;2023-01-30T01:38:32;95087.19;;;-3.24;98.39
42247;BME280;27913;42.722;23.268;2023-01-30T01:40:58;95249.66;;;-2.34;98.83
42247;BME280;27913;42.722;23.268;2023-01-30T01:43:29;95078.22;;;-3.31;98.15
42247;BME280;27913;42.722;23.268;2023-01-30T01:46:42;95188.38;;;-2.70;98.55
42247;BME280;27913;42.722;23.268;2023-01-30T01:49:02;95255.44;;;-2.31;98.93
42247;BME280;27913;42.722;23.268;2023-01-30T01:51:35;95176.09;;;-2.79;98.01
42247;BME280;27913;42.722;23.268;2023-01-30T01:54:09;95173.03;;;-2.71;97.75
42247;BME280;27913;42.722;23.268;2023-01-30T01:56:40;94985.47;;;-3.96;97.19
42247;BME280;27913;42.722;23.268;2023-01-30T01:59:13;95130.56;;;-3.05;97.74
42247;BME280;27913;42.722;23.268;2023-01-30T02:01:44;94984.16;;;-3.89;97.98
42247;BME280;27913;42.722;23.268;2023-01-30T02:04:10;95259.13;;;-2.35;97.73
42247;BME280;27913;42.722;23.268;2023-01-30T02:06:38;95079.94;;;-3.45;97.77
42247;BME280;27913;42.722;23.268;2023-01-30T02:09:08;95086.13;;;-3.34;97.77
42247;BME280;27913;42.722;23.268;2023-01-30T02:11:49;95244.06;;;-2.28;97.94
42247;BME280;27913;42.722;23.268;2023-01-30T02:14:16;95255.31;;;-2.29;98.71
42247;BME280;27913;42.722;23.268;2023-01-30T02:16:45;94955.63;;;-4.12;98.86
42247;BME280;27913;42.722;23.268;2023-01-30T02:22:16;95181.19;;;-2.64;99.34
42247;BME280;27913;42.722;23.268;2023-01-30T02:27:43;95080.88;;;-3.33;98.45
42247;BME280;27913;42.722;23.268;2023-01-30T02:33:01;95157.69;;;-2.73;96.25
42247;BME280;27913;42.722;23.268;2023-01-30T02:47:13;95244.09;;;-2.15;97.32
42247;BME280;27913;42.722;23.268;2023-01-30T02:49:44;95181.91;;;-2.49;96.75
42247;BME280;27913;42.722;23.268;2023-01-30T02:52:11;95201.63;;;-2.22;96.87
42247;BME280;27913;42.722;23.268;2023-01-30T02:54:38;95083.72;;;-2.97;96.74
42247;BME280;27913;42.722;23.268;2023-01-30T02:57:17;95191.72;;;-2.41;95.61
42247;BME280;27913;42.722;23.268;2023-01-30T02:59:45;95160.56;;;-2.64;95.95
42247;BME280;27913;42.722;23.268;2023-01-30T03:05:30;95138.84;;;-2.73;96.58
42247;BME280;27913;42.722;23.268;2023-01-30T03:08:22;95151.31;;;-2.67;95.40
42247;BME280;27913;42.722;23.268;2023-01-30T03:11:02;95236.75;;;-2.21;96.26
42247;BME280;27913;42.722;23.268;2023-01-30T03:16:06;94981.13;;;-3.68;96.59
42247;BME280;27913;42.722;23.268;2023-01-30T03:18:32;95238.94;;;-2.15;97.07
42247;BME280;27913;42.722;23.268;2023-01-30T03:21:03;95233.06;;;-2.17;96.60
42247;BME280;27913;42.722;23.268;2023-01-30T03:23:29;95141.00;;;-2.54;96.12
42247;BME280;27913;42.722;23.268;2023-01-30T03:25:55;95188.13;;;-2.26;96.71
42247;BME280;27913;42.722;23.268;2023-01-30T03:28:21;95207.47;;;-2.07;96.64
42247;BME280;27913;42.722;23.268;2023-01-30T03:30:46;95204.09;;;-2.08;96.30
42247;BME280;27913;42.722;23.268;2023-01-30T03:33:12;95192.44;;;-2.13;96.17
42247;BME280;27913;42.722;23.268;2023-01-30T03:35:37;95200.06;;;-2.12;95.89
42247;BME280;27913;42.722;23.268;2023-01-30T03:38:03;95186.88;;;-2.20;95.66
42247;BME280;27913;42.722;23.268;2023-01-30T03:40:29;95187.91;;;-2.23;96.37
42247;BME280;27913;42.722;23.268;2023-01-30T03:42:54;95199.16;;;-2.24;96.36
42247;BME280;27913;42.722;23.268;2023-01-30T03:45:20;95138.84;;;-2.60;95.77
42247;BME280;27913;42.722;23.268;2023-01-30T03:47:45;95085.78;;;-2.89;95.07
42247;BME280;27913;42.722;23.268;2023-01-30T03:50:12;95052.19;;;-3.27;95.39
42247;BME280;27913;42.722;23.268;2023-01-30T03:52:37;95144.59;;;-2.70;95.87
42247;BME280;27913;42.722;23.268;2023-01-30T03:55:03;95195.81;;;-2.39;96.66
42247;BME280;27913;42.722;23.268;2023-01-30T03:57:29;95191.22;;;-2.34;96.61
42247;BME280;27913;42.722;23.268;2023-01-30T03:59:54;95091.44;;;-2.97;95.66
42247;BME280;27913;42.722;23.268;2023-01-30T04:02:20;95175.03;;;-2.36;96.86
42247;BME280;27913;42.722;23.268;2023-01-30T04:04:48;95178.63;;;-2.38;97.19
42247;BME280;27913;42.722;23.268;2023-01-30T04:07:14;95073.63;;;-3.13;97.21
42247;BME280;27913;42.722;23.268;2023-01-30T04:09:39;95073.00;;;-3.17;96.84
42247;BME280;27913;42.722;23.268;2023-01-30T04:12:05;95114.72;;;-2.85;97.16
42247;BME280;27913;42.722;23.268;2023-01-30T04:14:31;95169.56;;;-2.31;97.65
42247;BME280;27913;42.722;23.268;2023-01-30T04:16:56;95184.81;;;-2.41;97.18
42247;BME280;27913;42.722;23.268;2023-01-30T04:19:22;95163.16;;;-2.64;97.38
42247;BME280;27913;42.722;23.268;2023-01-30T04:21:48;95189.13;;;-2.55;97.81
42247;BME280;27913;42.722;23.268;2023-01-30T04:24:13;94849.09;;;-4.47;97.65
42247;BME280;27913;42.722;23.268;2023-01-30T04:26:38;95075.06;;;-3.09;98.19
42247;BME280;27913;42.722;23.268;2023-01-30T04:29:04;95168.09;;;-2.35;97.61
42247;BME280;27913;42.722;23.268;2023-01-30T04:31:29;95113.41;;;-2.78;97.86
42247;BME280;27913;42.722;23.268;2023-01-30T04:33:55;95175.97;;;-2.24;98.03
42247;BME280;27913;42.722;23.268;2023-01-30T04:36:21;95183.38;;;-2.32;97.68
42247;BME280;27913;42.722;23.268;2023-01-30T04:38:46;95116.06;;;-2.67;98.13
42247;BME280;27913;42.722;23.268;2023-01-30T04:41:12;95183.66;;;-2.37;98.37
42247;BME280;27913;42.722;23.268;2023-01-30T04:43:37;95100.09;;;-2.72;97.67
42247;BME280;27913;42.722;23.268;2023-01-30T04:46:03;95176.69;;;-2.22;97.51
42247;BME280;27913;42.722;23.268;2023-01-30T04:48:28;95159.69;;;-2.37;98.40
42247;BME280;27913;42.722;23.268;2023-01-30T04:50:55;95114.44;;;-2.68;99.14
42247;BME280;27913;42.722;23.268;2023-01-30T04:53:21;95172.56;;;-2.37;98.62
42247;BME280;27913;42.722;23.268;2023-01-30T04:55:47;95168.84;;;-2.33;98.40
42247;BME280;27913;42.722;23.268;2023-01-30T04:58:14;95073.31;;;-3.08;98.14
42247;BME280;27913;42.722;23.268;2023-01-30T05:00:39;95161.44;;;-2.38;98.31
42247;BME280;27913;42.722;23.268;2023-01-30T05:03:05;94922.16;;;-3.84;98.68
42247;BME280;27913;42.722;23.268;2023-01-30T05:05:31;94818.59;;;-4.52;98.82
42247;BME280;27913;42.722;23.268;2023-01-30T05:07:57;95155.22;;;-2.35;99.45
42247;BME280;27913;42.722;23.268;2023-01-30T05:10:22;95080.44;;;-2.86;99.28
42247;BME280;27913;42.722;23.268;2023-01-30T05:12:48;95082.50;;;-2.91;100.00
42247;BME280;27913;42.722;23.268;2023-01-30T05:15:13;94860.16;;;-4.19;100.00
42247;BME280;27913;42.722;23.268;2023-01-30T05:17:39;95067.34;;;-2.83;100.00
42247;BME280;27913;42.722;23.268;2023-01-30T05:20:07;95129.06;;;-2.55;100.00
42247;BME280;27913;42.722;23.268;2023-01-30T05:22:33;95147.09;;;-2.42;100.00
42247;BME280;27913;42.722;23.268;2023-01-30T05:24:59;94855.59;;;-4.28;100.00
42247;BME280;27913;42.722;23.268;2023-01-30T05:27:24;95060.97;;;-3.03;100.00
42247;BME280;27913;42.722;23.268;2023-01-30T05:29:50;95157.91;;;-2.50;100.00
42247;BME280;27913;42.722;23.268;2023-01-30T05:32:18;95150.19;;;-2.37;100.00
42247;BME280;27913;42.722;23.268;2023-01-30T05:34:44;95158.53;;;-2.33;100.00
42247;BME280;27913;42.722;23.268;2023-01-30T05:37:11;95177.19;;;-2.29;100.00
42247;BME280;27913;42.722;23.268;2023-01-30T05:39:37;95092.50;;;-2.73;100.00
42247;BME280;27913;42.722;23.268;2023-01-30T05:42:03;95157.00;;;-2.36;100.00
42247;BME280;27913;42.722;23.268;2023-01-30T05:44:29;95098.34;;;-2.84;100.00
42247;BME280;27913;42.722;23.268;2023-01-30T05:46:55;95083.63;;;-2.95;100.00
42247;BME280;27913;42.722;23.268;2023-01-30T05:49:20;95092.16;;;-2.95;100.00
42247;BME280;27913;42.722;23.268;2023-01-30T05:51:46;95063.44;;;-3.14;100.00
42247;BME280;27913;42.722;23.268;2023-01-30T05:54:12;95068.34;;;-3.24;100.00
42247;BME280;27913;42.722;23.268;2023-01-30T05:56:37;95178.53;;;-2.50;100.00
42247;BME280;27913;42.722;23.268;2023-01-30T05:59:03;95102.03;;;-3.01;100.00
42247;BME280;27913;42.722;23.268;2023-01-30T06:01:29;94984.94;;;-3.61;100.00
42247;BME280;27913;42.722;23.268;2023-01-30T06:03:55;95169.88;;;-2.49;100.00
42247;BME280;27913;42.722;23.268;2023-01-30T06:06:22;95094.41;;;-3.03;100.00
42247;BME280;27913;42.722;23.268;2023-01-30T06:08:51;95081.72;;;-3.19;100.00
42247;BME280;27913;42.722;23.268;2023-01-30T06:11:17;95166.28;;;-2.46;100.00
42247;BME280;27913;42.722;23.268;2023-01-30T06:13:43;95109.91;;;-2.90;100.00
42247;BME280;27913;42.722;23.268;2023-01-30T06:16:13;94896.44;;;-4.10;100.00
42247;BME280;27913;42.722;23.268;2023-01-30T06:18:39;95162.03;;;-2.47;100.00
42247;BME280;27913;42.722;23.268;2023-01-30T06:21:05;95035.84;;;-3.25;100.00
42247;BME280;27913;42.722;23.268;2023-01-30T06:23:30;95065.28;;;-3.04;100.00
42247;BME280;27913;42.722;23.268;2023-01-30T06:25:56;94929.16;;;-3.86;100.00
42247;BME280;27913;42.722;23.268;2023-01-30T06:28:23;95166.91;;;-2.43;100.00
42247;BME280;27913;42.722;23.268;2023-01-30T06:30:49;94916.09;;;-3.96;100.00
42247;BME280;27913;42.722;23.268;2023-01-30T06:33:15;95178.22;;;-2.45;100.00
42247;BME280;27913;42.722;23.268;2023-01-30T06:35:42;94954.69;;;-3.83;100.00
42247;BME280;27913;42.722;23.268;2023-01-30T06:38:08;95173.16;;;-2.47;100.00
42247;BME280;27913;42.722;23.268;2023-01-30T06:40:39;95039.13;;;-3.23;100.00
42247;BME280;27913;42.722;23.268;2023-01-30T06:43:05;95171.22;;;-2.43;100.00
42247;BME280;27913;42.722;23.268;2023-01-30T06:45:30;95172.25;;;-2.33;100.00
42247;BME280;27913;42.722;23.268;2023-01-30T06:47:56;95171.31;;;-2.32;100.00
42247;BME280;27913;42.722;23.268;2023-01-30T06:50:23;95184.50;;;-2.36;100.00
42247;BME280;27913;42.722;23.268;2023-01-30T06:52:50;95041.09;;;-3.14;100.00
42247;BME280;27913;42.722;23.268;2023-01-30T06:55:19;94915.72;;;-3.90;100.00
42247;BME280;27913;42.722;23.268;2023-01-30T06:57:45;95183.78;;;-2.38;99.98
42247;BME280;27913;42.722;23.268;2023-01-30T07:00:18;95043.44;;;-3.11;100.00
42247;BME280;27913;42.722;23.268;2023-01-30T07:02:45;95186.06;;;-2.34;100.00
42247;BME280;27913;42.722;23.268;2023-01-30T07:05:11;95186.97;;;-2.35;100.00
42247;BME280;27913;42.722;23.268;2023-01-30T07:07:37;95058.69;;;-3.21;100.00
42247;BME280;27913;42.722;23.268;2023-01-30T07:10:04;95188.81;;;-2.37;100.00
42247;BME280;27913;42.722;23.268;2023-01-30T07:12:30;95067.22;;;-3.07;100.00
42247;BME280;27913;42.722;23.268;2023-01-30T07:14:56;94889.03;;;-4.15;99.41
42247;BME280;27913;42.722;23.268;2023-01-30T07:17:22;95182.94;;;-2.39;99.35
42247;BME280;27913;42.722;23.268;2023-01-30T07:19:48;95192.13;;;-2.35;98.69
42247;BME280;27913;42.722;23.268;2023-01-30T07:22:14;95059.34;;;-3.04;98.68
42247;BME280;27913;42.722;23.268;2023-01-30T07:24:40;95123.91;;;-2.81;98.36
42247;BME280;27913;42.722;23.268;2023-01-30T07:27:10;95066.00;;;-3.01;98.66
42247;BME280;27913;42.722;23.268;2023-01-30T07:29:36;95193.97;;;-2.37;97.70
42247;BME280;27913;42.722;23.268;2023-01-30T07:32:03;95204.09;;;-2.34;97.29
42247;BME280;27913;42.722;23.268;2023-01-30T07:34:29;95070.44;;;-3.04;96.50
42247;BME280;27913;42.722;23.268;2023-01-30T07:36:54;95028.59;;;-3.33;96.77
42247;BME280;27913;42.722;23.268;2023-01-30T07:39:20;95201.31;;;-2.31;97.71
42247;BME280;27913;42.722;23.268;2023-01-30T07:41:45;94977.34;;;-3.62;98.16
42247;BME280;27913;42.722;23.268;2023-01-30T07:44:11;95197.72;;;-2.15;98.98
42247;BME280;27913;42.722;23.268;2023-01-30T07:46:37;95100.00;;;-2.83;98.54
42247;BME280;27913;42.722;23.268;2023-01-30T07:49:03;95201.94;;;-2.27;98.01
42247;BME280;27913;42.722;23.268;2023-01-30T07:51:30;95203.66;;;-2.40;98.60
42247;BME280;27913;42.722;23.268;2023-01-30T07:53:55;95079.59;;;-2.99;99.18
42247;BME280;27913;42.722;23.268;2023-01-30T07:56:21;95187.50;;;-2.29;99.80
42247;BME280;27913;42.722;23.268;2023-01-30T07:58:47;95152.13;;;-2.40;100.00
42247;BME280;27913;42.722;23.268;2023-01-30T08:01:13;95171.19;;;-2.30;99.57
42247;BME280;27913;42.722;23.268;2023-01-30T08:03:39;95162.03;;;-2.34;99.46
42247;BME280;27913;42.722;23.268;2023-01-30T08:06:05;94966.03;;;-3.47;98.92
42247;BME280;27913;42.722;23.268;2023-01-30T08:08:30;95066.66;;;-2.85;99.71
42247;BME280;27913;42.722;23.268;2023-01-30T08:10:56;95107.63;;;-2.56;99.30
42247;BME280;27913;42.722;23.268;2023-01-30T08:13:21;95163.47;;;-2.17;99.16
42247;BME280;27913;42.722;23.268;2023-01-30T08:15:46;95082.69;;;-2.68;98.72
42247;BME280;27913;42.722;23.268;2023-01-30T08:18:12;95177.69;;;-2.24;98.87
42247;BME280;27913;42.722;23.268;2023-01-30T08:20:37;94961.09;;;-3.37;98.19
42247;BME280;27913;42.722;23.268;2023-01-30T08:23:03;95163.97;;;-2.25;98.47
42247;BME280;27913;42.722;23.268;2023-01-30T08:25:29;95165.84;;;-2.27;98.34
42247;BME280;27913;42.722;23.268;2023-01-30T08:27:55;95030.28;;;-3.06;97.93
42247;BME280;27913;42.722;23.268;2023-01-30T08:30:22;95136.38;;;-2.49;98.15
42247;BME280;27913;42.722;23.268;2023-01-30T08:32:47;95163.47;;;-2.30;97.34
42247;BME280;27913;42.722;23.268;2023-01-30T08:35:13;95160.09;;;-2.31;97.37
42247;BME280;27913;42.722;23.268;2023-01-30T08:37:40;95154.63;;;-2.26;97.71
42247;BME280;27913;42.722;23.268;2023-01-30T08:40:06;95149.88;;;-2.19;97.52
42247;BME280;27913;42.722;23.268;2023-01-30T08:42:32;95150.09;;;-2.22;96.69
42247;BME280;27913;42.722;23.268;2023-01-30T08:44:58;95025.25;;;-2.82;99.31
42247;BME280;27913;42.722;23.268;2023-01-30T08:47:23;95076.28;;;-2.23;96.74
42247;BME280;27913;42.722;23.268;2023-01-30T08:49:49;95058.75;;;-2.18;95.17
42247;BME280;27913;42.722;23.268;2023-01-30T08:52:15;94926.63;;;-3.08;93.49
42247;BME280;27913;42.722;23.268;2023-01-30T08:54:41;95149.94;;;-1.95;93.70
42247;BME280;27913;42.722;23.268;2023-01-30T08:57:07;95147.06;;;-2.03;94.97
42247;BME280;27913;42.722;23.268;2023-01-30T08:59:32;95058.38;;;-2.51;95.09
42247;BME280;27913;42.722;23.268;2023-01-30T09:01:58;95117.59;;;-2.12;95.74
42247;BME280;27913;42.722;23.268;2023-01-30T09:04:23;95126.78;;;-2.08;95.54
42247;BME280;27913;42.722;23.268;2023-01-30T09:06:50;95104.09;;;-2.15;95.09
42247;BME280;27913;42.722;23.268;2023-01-30T09:09:16;94876.84;;;-3.59;95.66
42247;BME280;27913;42.722;23.268;2023-01-30T09:11:42;95076.69;;;-2.29;96.46
42247;BME280;27913;42.722;23.268;2023-01-30T09:14:07;95049.53;;;-2.47;94.91
42247;BME280;27913;42.722;23.268;2023-01-30T09:16:33;95134.06;;;-2.01;95.00
42247;BME280;27913;42.722;23.268;2023-01-30T09:18:58;95034.78;;;-2.58;94.98
42247;BME280;27913;42.722;23.268;2023-01-30T09:21:23;95129.25;;;-2.06;95.53
42247;BME280;27913;42.722;23.268;2023-01-30T09:23:49;95115.00;;;-1.99;95.90
42247;BME280;27913;42.722;23.268;2023-01-30T09:26:14;95030.25;;;-2.41;95.30
42247;BME280;27913;42.722;23.268;2023-01-30T09:28:40;95123.25;;;-1.93;95.22
42247;BME280;27913;42.722;23.268;2023-01-30T09:31:05;95133.06;;;-1.99;95.51
42247;BME280;27913;42.722;23.268;2023-01-30T09:33:31;94784.22;;;-4.10;95.11
42247;BME280;27913;42.722;23.268;2023-01-30T09:35:56;94980.88;;;-2.85;95.34
42247;BME280;27913;42.722;23.268;2023-01-30T09:38:22;95105.00;;;-2.03;95.26
42247;BME280;27913;42.722;23.268;2023-01-30T09:46:15;95094.69;;;-2.03;95.84
42247;BME280;27913;42.722;23.268;2023-01-30T09:54:33;94977.88;;;-2.92;95.96
42247;BME280;27913;42.722;23.268;2023-01-30T09:57:10;95031.09;;;-2.53;95.85
42247;BME280;27913;42.722;23.268;2023-01-30T09:59:49;95028.94;;;-2.73;94.89
42247;BME280;27913;42.722;23.268;2023-01-30T10:05:00;94934.47;;;-3.23;95.26
42247;BME280;27913;42.722;23.268;2023-01-30T10:10:12;95008.97;;;-2.82;94.33
42247;BME280;27913;42.722;23.268;2023-01-30T10:21:39;94887.19;;;-3.09;91.74
42247;BME280;27913;42.722;23.268;2023-01-30T10:27:18;94982.47;;;-2.58;92.36
42247;BME280;27913;42.722;23.268;2023-01-30T10:29:58;95052.22;;;-2.11;92.08
42247;BME280;27913;42.722;23.268;2023-01-30T10:32:29;94977.78;;;-2.40;91.78
42247;BME280;27913;42.722;23.268;2023-01-30T10:35:04;95026.16;;;-2.19;91.90
42247;BME280;27913;42.722;23.268;2023-01-30T10:38:02;95012.25;;;-2.16;91.92
42247;BME280;27913;42.722;23.268;2023-01-30T10:40:34;95000.88;;;-2.38;91.00
42247;BME280;27913;42.722;23.268;2023-01-30T10:43:26;95009.06;;;-2.20;91.06
42247;BME280;27913;42.722;23.268;2023-01-30T10:48:57;94863.63;;;-3.03;90.31
42247;BME280;27913;42.722;23.268;2023-01-30T10:51:37;94912.22;;;-2.60;90.71
42247;BME280;27913;42.722;23.268;2023-01-30T10:57:00;94973.34;;;-2.00;91.13
42247;BME280;27913;42.722;23.268;2023-01-30T10:59:44;94841.31;;;-2.77;90.59
42247;BME280;27913;42.722;23.268;2023-01-30T11:05:13;94975.81;;;-1.99;89.99
42247;BME280;27913;42.722;23.268;2023-01-30T11:07:39;94953.97;;;-2.06;90.35
42247;BME280;27913;42.722;23.268;2023-01-30T11:10:15;94836.97;;;-2.77;89.54
42247;BME280;27913;42.722;23.268;2023-01-30T11:12:41;94944.38;;;-2.04;89.51
42247;BME280;27913;42.722;23.268;2023-01-30T11:15:07;94945.28;;;-2.05;89.29
42247;BME280;27913;42.722;23.268;2023-01-30T11:17:34;94924.63;;;-1.92;90.05
42247;BME280;27913;42.722;23.268;2023-01-30T11:20:15;94944.28;;;-1.91;89.66
42247;BME280;27913;42.722;23.268;2023-01-30T11:22:45;94916.19;;;-1.83;89.99
42247;BME280;27913;42.722;23.268;2023-01-30T11:25:19;94837.91;;;-2.29;89.29
42247;BME280;27913;42.722;23.268;2023-01-30T11:27:59;94927.09;;;-1.79;89.11
42247;BME280;27913;42.722;23.268;2023-01-30T11:30:27;94838.50;;;-2.25;89.49
42247;BME280;27913;42.722;23.268;2023-01-30T11:33:13;94897.22;;;-1.82;88.69
42247;BME280;27913;42.722;23.268;2023-01-30T11:36:00;94898.63;;;-1.77;89.40
42247;BME280;27913;42.722;23.268;2023-01-30T11:38:31;94615.75;;;-3.64;88.01
42247;BME280;27913;42.722;23.268;2023-01-30T11:41:21;94696.03;;;-3.22;88.28
42247;BME280;27913;42.722;23.268;2023-01-30T11:43:46;94803.72;;;-2.56;88.45
42247;BME280;27913;42.722;23.268;2023-01-30T11:46:21;94673.81;;;-3.23;88.58
42247;BME280;27913;42.722;23.268;2023-01-30T11:48:50;94864.84;;;-1.97;88.55
42247;BME280;27913;42.722;23.268;2023-01-30T11:51:20;94755.84;;;-2.58;89.02
42247;BME280;27913;42.722;23.268;2023-01-30T11:53:56;94877.88;;;-1.87;88.34
42247;BME280;27913;42.722;23.268;2023-01-30T11:56:32;94765.94;;;-2.55;88.36
42247;BME280;27913;42.722;23.268;2023-01-30T11:59:02;94866.25;;;-1.93;89.47
42247;BME280;27913;42.722;23.268;2023-01-30T12:01:30;94869.75;;;-1.94;88.99
42247;BME280;27913;42.722;23.268;2023-01-30T12:03:57;94800.78;;;-2.26;87.84
42247;BME280;27913;42.722;23.268;2023-01-30T12:06:35;94625.25;;;-3.28;88.54
42247;BME280;27913;42.722;23.268;2023-01-30T12:09:02;94833.19;;;-1.88;88.58
42247;BME280;27913;42.722;23.268;2023-01-30T12:14:40;94837.69;;;-1.90;87.68
42247;BME280;27913;42.722;23.268;2023-01-30T12:17:25;94706.50;;;-2.76;88.19
42247;BME280;27913;42.722;23.268;2023-01-30T12:23:02;94815.69;;;-2.19;88.61
42247;BME280;27913;42.722;23.268;2023-01-30T12:25:37;94836.38;;;-1.96;89.17
42247;BME280;27913;42.722;23.268;2023-01-30T12:28:21;94802.75;;;-1.94;88.14
42247;BME280;27913;42.722;23.268;2023-01-30T12:31:09;94691.66;;;-2.73;88.01
42247;BME280;27913;42.722;23.268;2023-01-30T12:33:36;94822.78;;;-1.86;88.11
42247;BME280;27913;42.722;23.268;2023-01-30T12:36:25;94726.41;;;-2.31;88.87
42247;BME280;27913;42.722;23.268;2023-01-30T12:39:13;94789.13;;;-1.96;88.51
42247;BME280;27913;42.722;23.268;2023-01-30T12:44:36;94676.88;;;-2.46;87.06
42247;BME280;27913;42.722;23.268;2023-01-30T13:01:27;94768.78;;;-1.76;88.45
42247;BME280;27913;42.722;23.268;2023-01-30T13:07:04;94726.91;;;-2.03;86.87
42247;BME280;27913;42.722;23.268;2023-01-30T13:18:02;94682.72;;;-2.21;87.41
42247;BME280;27913;42.722;23.268;2023-01-30T13:26:10;94768.88;;;-1.66;86.79
42247;BME280;27913;42.722;23.268;2023-01-30T13:28:45;94753.88;;;-1.73;87.16
42247;BME280;27913;42.722;23.268;2023-01-30T13:31:16;94744.50;;;-1.74;87.61
42247;BME280;27913;42.722;23.268;2023-01-30T13:33:44;94753.06;;;-1.73;87.40
42247;BME280;27913;42.722;23.268;2023-01-30T13:36:20;94623.94;;;-2.50;88.65
42247;BME280;27913;42.722;23.268;2023-01-30T13:41:55;94394.41;;;-3.83;87.58
42247;BME280;27913;42.722;23.268;2023-01-30T13:44:39;94668.94;;;-2.20;86.53
42247;BME280;27913;42.722;23.268;2023-01-30T13:52:50;94618.44;;;-2.46;87.35
42247;BME280;27913;42.722;23.268;2023-01-30T13:55:37;94648.28;;;-2.32;85.63
42247;BME280;27913;42.722;23.268;2023-01-30T14:01:05;94660.72;;;-2.14;85.73
42247;BME280;27913;42.722;23.268;2023-01-30T14:03:32;94530.97;;;-2.93;85.17
42247;BME280;27913;42.722;23.268;2023-01-30T14:06:00;94733.13;;;-1.71;86.25
42247;BME280;27913;42.722;23.268;2023-01-30T14:08:37;94735.59;;;-1.70;86.03
42247;BME280;27913;42.722;23.268;2023-01-30T14:11:03;94635.28;;;-2.30;85.77
42247;BME280;27913;42.722;23.268;2023-01-30T14:13:29;94663.75;;;-2.09;84.94
42247;BME280;27913;42.722;23.268;2023-01-30T14:16:01;94728.66;;;-1.58;84.96
42247;BME280;27913;42.722;23.268;2023-01-30T14:18:34;94660.59;;;-2.12;85.55
42247;BME280;27913;42.722;23.268;2023-01-30T14:21:19;94687.56;;;-1.93;85.33
42247;BME280;27913;42.722;23.268;2023-01-30T14:24:03;94659.53;;;-2.21;85.21
42247;BME280;27913;42.722;23.268;2023-01-30T14:34:45;94725.88;;;-1.66;85.20
42247;BME280;27913;42.722;23.268;2023-01-30T14:40:48;94731.63;;;-1.85;86.23
42247;BME280;27913;42.722;23.268;2023-01-30T14:45:51;94703.13;;;-2.07;87.19
42247;BME280;27913;42.722;23.268;2023-01-30T14:57:13;94616.69;;;-2.45;87.27
42247;BME280;27913;42.722;23.268;2023-01-30T14:59:37;94594.78;;;-2.62;87.57
42247;BME280;27913;42.722;23.268;2023-01-30T15:18:35;94699.38;;;-2.14;88.10
42247;BME280;27913;42.722;23.268;2023-01-30T15:23:58;94688.72;;;-2.21;89.01
42247;BME280;27913;42.722;23.268;2023-01-30T15:26:50;94695.63;;;-2.21;89.14
42247;BME280;27913;42.722;23.268;2023-01-30T15:29:38;94685.75;;;-2.39;89.39
42247;BME280;27913;42.722;23.268;2023-01-30T15:32:19;94643.81;;;-2.64;88.36
42247;BME280;27913;42.722;23.268;2023-01-30T15:34:53;94658.09;;;-2.60;88.75
42247;BME280;27913;42.722;23.268;2023-01-30T15:40:10;94710.84;;;-2.29;88.24